Time;durP1;ratioP1;P1;durP2;ratioP2;P2;SDS_P1;SDS_P2;PMS_P1;PMS_P2;Temp;Humidity;BMP_temperature;BMP_pressure;BME280_temperature;BME280_humidity;BME280_pressure;Samples;Min_cycle;Max_cycle;Signal;HPM_P1;HPM_P2
2022/04/16 00:00:59;;;;;;;4.43;2.90;;;14.10;54.10;;;;;;5109147;27;20088;-71
2022/04/16 00:03:25;;;;;;;4.00;2.60;;;14.10;54.00;;;;;;5129312;27;20027;-67
2022/04/16 00:05:52;;;;;;;3.53;2.80;;;14.10;54.00;;;;;;5108004;27;20056;-72
2022/04/16 00:08:25;;;;;;;3.78;2.90;;;14.00;54.10;;;;;;5126936;27;20111;-73
2022/04/16 00:10:52;;;;;;;3.58;2.92;;;14.00;54.20;;;;;;5109626;27;20042;-70
2022/04/16 00:13:19;;;;;;;3.42;2.80;;;14.10;54.20;;;;;;5128223;27;20102;-67
2022/04/16 00:15:49;;;;;;;3.30;2.70;;;14.00;54.10;;;;;;5108405;28;20058;-67
2022/04/16 00:18:16;;;;;;;3.72;2.90;;;14.00;54.20;;;;;;5108154;27;20379;-72
2022/04/16 00:20:44;;;;;;;5.22;2.92;;;14.00;54.30;;;;;;5127279;27;20027;-66
2022/04/16 00:23:10;;;;;;;3.33;2.60;;;14.00;55.20;;;;;;5126872;27;20199;-72
2022/04/16 00:25:36;;;;;;;3.17;2.55;;;14.00;54.70;;;;;;5127033;27;20023;-64
2022/04/16 00:28:03;;;;;;;3.60;2.60;;;14.00;54.60;;;;;;5109512;27;20031;-70
2022/04/16 00:30:35;;;;;;;3.53;2.95;;;14.00;54.70;;;;;;5111118;28;20027;-70
2022/04/16 00:33:02;;;;;;;4.05;3.00;;;14.00;54.70;;;;;;5127769;27;20492;-64
2022/04/16 00:35:29;;;;;;;4.97;2.75;;;14.00;54.70;;;;;;5131284;27;20031;-65
2022/04/16 00:37:55;;;;;;;4.47;2.90;;;14.00;54.70;;;;;;5127990;27;20464;-65
2022/04/16 00:40:21;;;;;;;3.70;2.90;;;14.00;54.60;;;;;;5127256;28;20038;-65
2022/04/16 00:42:46;;;;;;;3.08;2.70;;;13.90;54.50;;;;;;5107710;28;20105;-72
2022/04/16 00:45:13;;;;;;;3.35;2.47;;;13.90;54.50;;;;;;5125257;28;20344;-71
2022/04/16 00:47:40;;;;;;;3.28;2.60;;;13.90;54.40;;;;;;5126847;27;20057;-63
2022/04/16 00:50:11;;;;;;;3.67;2.83;;;14.00;54.50;;;;;;5106123;28;20024;-72
2022/04/16 00:52:38;;;;;;;3.92;2.70;;;13.90;54.40;;;;;;5107642;28;20024;-71
2022/04/16 00:55:08;;;;;;;3.88;3.25;;;14.00;54.40;;;;;;5128862;28;20023;-64
2022/04/16 00:57:36;;;;;;;8.23;3.28;;;14.00;54.50;;;;;;5133028;27;20029;-62
2022/04/16 01:00:03;;;;;;;3.38;2.83;;;13.90;54.40;;;;;;5130690;27;20034;-62
2022/04/16 01:02:28;;;;;;;2.92;2.63;;;13.90;54.60;;;;;;5111498;27;20019;-64
2022/04/16 01:04:54;;;;;;;3.08;2.70;;;13.80;54.70;;;;;;5129326;27;20428;-73
2022/04/16 01:07:24;;;;;;;4.97;2.88;;;13.80;54.90;;;;;;5129233;27;20050;-66
2022/04/16 01:09:50;;;;;;;4.00;3.10;;;13.80;54.90;;;;;;5129920;27;20103;-68
2022/04/16 01:12:16;;;;;;;3.53;2.92;;;13.80;54.90;;;;;;5129485;27;20551;-68
2022/04/16 01:14:42;;;;;;;3.13;2.83;;;13.90;54.90;;;;;;5129750;27;20073;-72
2022/04/16 01:17:09;;;;;;;4.63;3.08;;;13.90;54.80;;;;;;5129036;27;20019;-72
2022/04/16 01:19:37;;;;;;;3.80;3.08;;;13.80;54.90;;;;;;5129977;27;20019;-69
2022/04/16 01:22:05;;;;;;;5.38;3.13;;;13.80;55.10;;;;;;5128879;27;20034;-63
2022/04/16 01:24:31;;;;;;;3.80;3.05;;;13.80;55.10;;;;;;5129265;27;20523;-71
2022/04/16 01:26:58;;;;;;;3.97;3.20;;;13.80;55.10;;;;;;5128886;27;20036;-70
2022/04/16 01:29:24;;;;;;;4.10;3.40;;;13.80;55.40;;;;;;5129383;27;20030;-68
2022/04/16 01:31:50;;;;;;;4.70;3.42;;;13.80;55.40;;;;;;5113655;27;20027;-64
2022/04/16 01:34:17;;;;;;;3.95;3.25;;;13.80;55.30;;;;;;5110520;27;20023;-70
2022/04/16 01:36:43;;;;;;;3.35;3.03;;;13.80;55.40;;;;;;5094647;27;20035;-68
2022/04/16 01:39:09;;;;;;;3.58;3.25;;;13.80;55.40;;;;;;5128737;27;20033;-68
2022/04/16 01:41:36;;;;;;;4.72;3.70;;;13.70;55.50;;;;;;5128915;27;20442;-68
2022/04/16 01:44:02;;;;;;;3.97;3.40;;;13.70;55.80;;;;;;5129171;27;20030;-64
2022/04/16 01:46:29;;;;;;;3.90;3.22;;;13.60;55.90;;;;;;5128877;27;20035;-68
2022/04/16 01:48:55;;;;;;;4.35;3.70;;;13.60;55.90;;;;;;5129160;27;20027;-73
2022/04/16 01:51:21;;;;;;;3.72;2.80;;;13.70;55.80;;;;;;5111687;27;20037;-69
2022/04/16 01:53:47;;;;;;;3.83;3.25;;;13.70;55.90;;;;;;5128978;27;20030;-67
2022/04/16 01:56:13;;;;;;;3.80;3.40;;;13.70;55.90;;;;;;5128266;27;20019;-72
2022/04/16 01:58:41;;;;;;;3.78;3.30;;;13.70;55.90;;;;;;5131881;27;20061;-62
2022/04/16 02:01:08;;;;;;;4.13;3.38;;;13.70;56.10;;;;;;5133304;27;20340;-70
2022/04/16 02:03:34;;;;;;;4.97;3.00;;;13.80;55.90;;;;;;5128975;27;20490;-66
2022/04/16 02:06:00;;;;;;;3.80;3.00;;;13.80;55.70;;;;;;5128325;27;20034;-72
2022/04/16 02:08:26;;;;;;;3.55;3.20;;;13.80;55.60;;;;;;5128237;27;20023;-73
2022/04/16 02:10:52;;;;;;;3.85;3.33;;;13.70;55.50;;;;;;5110229;27;20023;-63
2022/04/16 02:13:18;;;;;;;3.55;3.20;;;13.80;55.50;;;;;;5109737;27;20107;-70
2022/04/16 02:15:43;;;;;;;3.40;2.95;;;13.70;55.60;;;;;;5110348;27;20086;-69
2022/04/16 02:18:09;;;;;;;4.10;3.15;;;13.70;55.70;;;;;;5128082;27;20099;-63
2022/04/16 02:20:36;;;;;;;3.80;3.38;;;13.70;55.80;;;;;;5128504;27;20055;-63
2022/04/16 02:23:03;;;;;;;6.32;3.55;;;13.60;55.80;;;;;;5114762;27;20085;-62
2022/04/16 02:25:31;;;;;;;3.92;3.40;;;13.50;55.90;;;;;;5134888;27;20027;-63
2022/04/16 02:27:57;;;;;;;4.63;3.42;;;13.40;56.20;;;;;;5134538;27;20023;-73
2022/04/16 02:30:23;;;;;;;3.97;3.45;;;13.40;56.50;;;;;;5131937;27;20023;-65
2022/04/16 02:32:53;;;;;;;5.53;3.33;;;13.30;56.60;;;;;;5111294;27;20025;-69
2022/04/16 02:35:19;;;;;;;4.53;3.35;;;13.30;56.80;;;;;;5133304;27;20084;-64
2022/04/16 02:37:46;;;;;;;4.13;3.42;;;13.30;56.90;;;;;;5116371;27;20475;-64
2022/04/16 02:40:13;;;;;;;4.05;3.60;;;13.30;57.10;;;;;;5133994;27;20035;-64
2022/04/16 02:42:40;;;;;;;4.15;3.50;;;13.20;57.20;;;;;;5134528;27;20023;-64
2022/04/16 02:47:54;;;;;;;3.63;3.22;;;13.30;57.40;;;;;;5128155;27;20035;-71
2022/04/16 02:50:20;;;;;;;3.92;3.50;;;13.30;57.40;;;;;;5108755;27;20031;-64
2022/04/16 02:52:46;;;;;;;3.97;3.38;;;13.40;57.40;;;;;;5129823;27;20031;-64
2022/04/16 02:55:15;;;;;;;3.80;3.30;;;13.40;57.30;;;;;;5127752;27;20110;-72
2022/04/16 02:57:44;;;;;;;3.83;3.38;;;13.40;57.50;;;;;;5129989;27;20027;-64
2022/04/16 03:00:13;;;;;;;3.67;3.25;;;13.30;57.60;;;;;;5108677;27;20110;-67
2022/04/16 03:02:39;;;;;;;3.90;3.50;;;13.40;57.80;;;;;;5128972;27;20031;-64
2022/04/16 03:05:06;;;;;;;4.88;3.88;;;13.40;57.80;;;;;;5131729;27;20023;-71
2022/04/16 03:07:33;;;;;;;4.10;3.50;;;13.40;57.90;;;;;;5128964;27;20164;-68
2022/04/16 03:09:59;;;;;;;3.83;3.22;;;13.40;57.70;;;;;;5127472;27;20051;-74
2022/04/16 03:12:25;;;;;;;3.70;3.30;;;13.50;57.60;;;;;;5127367;27;20027;-70
2022/04/16 03:17:35;;;;;;;;;;;13.40;57.70;;;;;;5127960;27;20034;-72
2022/04/16 03:20:06;;;;;;;4.60;3.53;;;13.50;57.80;;;;;;5126274;27;20270;-63
2022/04/16 03:22:37;;;;;;;4.88;3.60;;;13.60;57.60;;;;;;5129041;27;20054;-62
2022/04/16 03:25:09;;;;;;;4.15;3.75;;;13.60;57.40;;;;;;5109157;27;20241;-68
2022/04/16 03:27:37;;;;;;;3.72;3.33;;;13.50;57.60;;;;;;5127580;27;20024;-71
2022/04/16 03:30:06;;;;;;;5.07;3.60;;;13.50;57.90;;;;;;5126407;27;20079;-70
2022/04/16 03:32:32;;;;;;;4.28;3.38;;;13.50;58.00;;;;;;5130381;27;20058;-70
2022/04/16 03:34:58;;;;;;;4.00;3.50;;;13.50;58.10;;;;;;5109655;27;20475;-65
2022/04/16 03:37:24;;;;;;;4.28;3.20;;;13.50;58.80;;;;;;5127188;27;20157;-63
2022/04/16 03:39:51;;;;;;;3.70;3.00;;;13.40;58.40;;;;;;5127117;27;20026;-69
2022/04/16 03:42:18;;;;;;;4.13;3.45;;;13.40;58.60;;;;;;5126507;27;20054;-70
2022/04/16 03:44:44;;;;;;;5.00;3.05;;;13.40;58.70;;;;;;5129551;27;20019;-72
2022/04/16 03:47:10;;;;;;;3.63;2.90;;;13.40;58.60;;;;;;5127391;27;20031;-72
2022/04/16 03:49:37;;;;;;;3.40;3.10;;;13.40;58.50;;;;;;5108395;27;20087;-70
2022/04/16 03:52:03;;;;;;;3.58;2.83;;;13.40;58.50;;;;;;5127706;27;20053;-63
2022/04/16 04:00:00;;;;;;;5.95;3.38;;;13.30;58.60;;;;;;5126621;27;20080;-71
2022/04/16 04:02:28;;;;;;;3.95;3.17;;;13.30;58.70;;;;;;5127573;27;20106;-72
2022/04/16 04:04:55;;;;;;;4.05;3.30;;;13.30;58.70;;;;;;5109280;27;20079;-68
2022/04/16 04:07:21;;;;;;;3.78;3.17;;;13.30;58.80;;;;;;5127251;27;20125;-72
2022/04/16 04:09:46;;;;;;;3.58;3.10;;;13.30;59.50;;;;;;5127398;27;20031;-64
2022/04/16 04:12:13;;;;;;;4.88;3.65;;;13.30;58.80;;;;;;5107144;27;20030;-72
2022/04/16 04:14:44;;;;;;;3.53;3.15;;;13.30;58.80;;;;;;5127334;27;20038;-63
2022/04/16 04:17:10;;;;;;;4.85;3.30;;;13.30;58.80;;;;;;5125758;27;20023;-69
2022/04/16 04:19:38;;;;;;;4.10;3.20;;;13.40;58.70;;;;;;5127878;27;20038;-70
2022/04/16 04:22:05;;;;;;;4.05;3.40;;;13.40;58.70;;;;;;5126962;27;20470;-63
2022/04/16 04:24:31;;;;;;;4.70;3.47;;;13.40;58.70;;;;;;5108447;27;20031;-63
2022/04/16 04:26:59;;;;;;;5.30;3.90;;;13.40;58.80;;;;;;5108865;27;20027;-71
2022/04/16 04:29:26;;;;;;;5.70;4.55;;;13.40;58.90;;;;;;5107929;27;20122;-67
2022/04/16 04:31:52;;;;;;;5.60;4.65;;;13.30;58.80;;;;;;5110241;28;20020;-71
2022/04/16 04:34:18;;;;;;;5.53;4.75;;;13.30;58.90;;;;;;5125438;27;20573;-69
2022/04/16 04:36:44;;;;;;;5.05;4.55;;;13.30;59.00;;;;;;5126167;27;20130;-64
2022/04/16 04:39:10;;;;;;;5.38;4.85;;;13.30;59.10;;;;;;5125862;28;20027;-69
2022/04/16 04:41:36;;;;;;;5.93;5.32;;;13.30;59.10;;;;;;5125987;27;20400;-70
2022/04/16 04:44:02;;;;;;;6.93;5.10;;;13.30;59.20;;;;;;5124811;27;20035;-73
2022/04/16 04:46:28;;;;;;;6.43;5.57;;;13.30;59.10;;;;;;5127629;28;20072;-67
2022/04/16 04:48:53;;;;;;;6.43;5.68;;;13.30;59.00;;;;;;5107502;28;20027;-67
2022/04/16 04:51:19;;;;;;;7.63;5.40;;;13.40;58.90;;;;;;5125686;28;20516;-63
2022/04/16 04:53:45;;;;;;;6.60;5.10;;;13.30;58.90;;;;;;5127054;27;20023;-65
2022/04/16 04:56:10;;;;;;;7.65;5.78;;;13.40;58.70;;;;;;5128123;28;20092;-64
2022/04/16 04:58:36;;;;;;;6.30;5.68;;;13.40;58.50;;;;;;5125595;27;20450;-65
2022/04/16 05:01:02;;;;;;;7.05;5.57;;;13.30;58.10;;;;;;5128348;28;20357;-65
2022/04/16 05:03:27;;;;;;;9.20;6.22;;;13.30;58.10;;;;;;5129956;27;20054;-65
2022/04/16 05:05:53;;;;;;;6.97;5.53;;;13.30;57.90;;;;;;5127054;28;20111;-63
2022/04/16 05:08:18;;;;;;;6.95;5.57;;;13.20;57.90;;;;;;5127846;28;20436;-69
2022/04/16 05:10:44;;;;;;;6.38;5.55;;;13.20;57.80;;;;;;5109487;28;20023;-70
2022/04/16 05:13:10;;;;;;;5.90;5.03;;;13.20;57.60;;;;;;5126058;27;20024;-65
2022/04/16 05:15:35;;;;;;;5.80;5.15;;;13.20;57.60;;;;;;5126606;28;20027;-73
2022/04/16 05:18:01;;;;;;;5.25;4.70;;;13.20;57.30;;;;;;5125191;27;20058;-72
2022/04/16 05:20:27;;;;;;;7.43;5.38;;;13.20;57.10;;;;;;5107634;28;20023;-71
2022/04/16 05:22:52;;;;;;;6.07;4.50;;;13.20;57.10;;;;;;5128976;27;20028;-63
2022/04/16 05:25:18;;;;;;;6.05;4.88;;;13.30;56.90;;;;;;5131751;27;20363;-64
2022/04/16 05:27:45;;;;;;;6.50;5.00;;;13.10;57.20;;;;;;5128542;27;20111;-66
2022/04/16 05:30:21;;;;;;;5.50;4.65;;;13.10;57.20;;;;;;5128034;28;20467;-65
2022/04/16 05:32:49;;;;;;;4.75;4.25;;;13.10;57.00;;;;;;5109452;28;20024;-64
2022/04/16 05:35:15;;;;;;;5.35;4.13;;;13.00;57.00;;;;;;5113098;28;20455;-64
2022/04/16 05:37:41;;;;;;;5.45;4.40;;;13.00;57.00;;;;;;5131465;28;20080;-63
2022/04/16 05:40:09;;;;;;;5.75;4.57;;;13.10;57.00;;;;;;5109693;28;20424;-72
2022/04/16 05:42:42;;;;;;;5.93;4.70;;;13.20;56.70;;;;;;5084284;28;20182;-67
2022/04/16 05:45:09;;;;;;;5.80;4.88;;;13.20;56.80;;;;;;5091360;28;20028;-64
2022/04/16 05:47:35;;;;;;;6.18;4.45;;;13.20;56.80;;;;;;5088429;28;20032;-72
2022/04/16 05:50:01;;;;;;;5.63;4.90;;;13.20;56.80;;;;;;5088879;28;20071;-68
2022/04/16 05:52:27;;;;;;;4.88;4.38;;;13.30;56.90;;;;;;5090320;28;20056;-71
2022/04/16 05:54:53;;;;;;;5.60;4.38;;;13.30;56.60;;;;;;5090259;28;20062;-63
2022/04/16 05:57:21;;;;;;;5.00;4.50;;;13.30;56.60;;;;;;5088185;28;20024;-71
2022/04/16 05:59:49;;;;;;;4.45;4.03;;;13.40;56.50;;;;;;5087650;28;20498;-69
2022/04/16 06:02:15;;;;;;;4.82;4.05;;;13.40;56.30;;;;;;5090519;28;20062;-70
2022/04/16 06:04:40;;;;;;;5.72;3.50;;;13.40;56.30;;;;;;5090853;27;20107;-69
2022/04/16 06:07:06;;;;;;;6.63;3.67;;;13.40;56.20;;;;;;5091773;28;20173;-64
2022/04/16 06:09:32;;;;;;;3.88;3.47;;;13.50;55.90;;;;;;5087160;28;20068;-65
2022/04/16 06:12:05;;;;;;;5.47;4.10;;;13.40;55.70;;;;;;5086137;28;20051;-69
2022/04/16 06:14:31;;;;;;;4.10;3.10;;;13.40;55.80;;;;;;5088066;28;20119;-68
2022/04/16 06:16:57;;;;;;;5.18;3.35;;;13.40;56.00;;;;;;5090282;28;20028;-62
2022/04/16 06:19:23;;;;;;;3.58;3.00;;;13.40;55.80;;;;;;5087675;28;20036;-71
2022/04/16 06:21:50;;;;;;;3.65;2.65;;;13.30;55.50;;;;;;5087164;28;20020;-73
2022/04/16 06:24:15;;;;;;;3.42;2.78;;;13.50;55.60;;;;;;5087555;28;20039;-68
2022/04/16 06:26:42;;;;;;;4.20;2.65;;;13.60;55.00;;;;;;5088789;28;20109;-68
2022/04/16 06:29:08;;;;;;;2.60;2.40;;;13.70;54.70;;;;;;5086778;28;20051;-61
2022/04/16 06:31:34;;;;;;;3.25;2.83;;;13.70;54.60;;;;;;5089668;28;20035;-65
2022/04/16 06:34:00;;;;;;;2.90;2.50;;;13.60;54.10;;;;;;5086789;28;20028;-68
2022/04/16 06:36:26;;;;;;;4.90;2.58;;;13.60;54.40;;;;;;5087536;28;20560;-62
2022/04/16 06:38:51;;;;;;;3.40;2.50;;;13.70;54.00;;;;;;5086867;28;20099;-72
2022/04/16 06:41:17;;;;;;;5.07;4.10;;;13.70;53.80;;;;;;5106761;27;20125;-64
2022/04/16 06:43:43;;;;;;;4.40;2.83;;;14.00;53.70;;;;;;5127160;27;20102;-70
2022/04/16 06:46:08;;;;;;;3.78;3.05;;;14.10;53.10;;;;;;5127288;27;20047;-63
2022/04/16 06:48:34;;;;;;;5.22;3.20;;;14.10;52.60;;;;;;5109068;27;20020;-70
2022/04/16 06:51:00;;;;;;;3.35;3.03;;;14.00;52.70;;;;;;5109745;27;20033;-63
2022/04/16 06:53:29;;;;;;;4.40;3.45;;;13.90;52.90;;;;;;5131280;27;20081;-71
2022/04/16 06:55:55;;;;;;;3.88;3.40;;;13.80;53.20;;;;;;5112455;27;20431;-62
2022/04/16 06:58:21;;;;;;;5.38;3.40;;;13.80;53.50;;;;;;5126702;27;20170;-67
2022/04/16 07:00:46;;;;;;;5.70;3.15;;;13.90;53.30;;;;;;5110383;27;20448;-71
2022/04/16 07:03:13;;;;;;;3.65;3.25;;;14.00;53.30;;;;;;5109599;27;20076;-64
2022/04/16 07:05:39;;;;;;;3.65;2.85;;;14.20;53.00;;;;;;5109166;27;20031;-67
2022/04/16 07:08:05;;;;;;;3.47;2.92;;;14.30;52.30;;;;;;5109195;27;20472;-64
2022/04/16 07:10:31;;;;;;;3.38;2.80;;;14.30;52.30;;;;;;5114847;27;20031;-68
2022/04/16 07:12:56;;;;;;;2.17;1.65;;;14.30;52.00;;;;;;5114759;27;20065;-59
2022/04/16 07:15:22;;;;;;;4.55;2.05;;;14.30;50.80;;;;;;5132406;27;20019;-67
2022/04/16 07:17:48;;;;;;;2.65;2.08;;;14.20;50.90;;;;;;5133136;27;20028;-64
2022/04/16 07:20:13;;;;;;;2.53;1.83;;;14.10;50.80;;;;;;5114079;27;20484;-64
2022/04/16 07:22:39;;;;;;;5.20;1.65;;;14.00;51.00;;;;;;5114734;27;20023;-64
2022/04/16 07:25:05;;;;;;;2.70;1.60;;;14.00;51.00;;;;;;5132426;27;20031;-71
2022/04/16 07:27:34;;;;;;;2.67;1.75;;;14.00;51.40;;;;;;5114686;27;20072;-67
2022/04/16 07:30:00;;;;;;;2.20;1.67;;;14.00;51.30;;;;;;5132633;27;20023;-65
2022/04/16 07:32:26;;;;;;;2.38;1.73;;;13.80;51.10;;;;;;5130888;27;20562;-62
2022/04/16 07:34:52;;;;;;;2.78;1.63;;;13.70;51.00;;;;;;5132746;27;20027;-66
2022/04/16 07:37:18;;;;;;;1.95;1.42;;;13.60;51.10;;;;;;5113642;27;20344;-64
2022/04/16 07:39:44;;;;;;;2.33;1.70;;;13.50;51.10;;;;;;5114552;27;20038;-67
2022/04/16 07:42:10;;;;;;;5.38;2.00;;;13.50;51.30;;;;;;5113681;27;20134;-65
2022/04/16 07:44:35;;;;;;;3.55;1.73;;;13.50;51.40;;;;;;5114128;27;20023;-66
2022/04/16 07:47:02;;;;;;;2.22;1.25;;;13.50;51.30;;;;;;5132586;27;20023;-64
2022/04/16 07:49:27;;;;;;;2.30;1.52;;;13.50;51.40;;;;;;5114395;27;20027;-64
2022/04/16 07:51:53;;;;;;;3.35;1.60;;;13.40;51.40;;;;;;5113438;27;20321;-63
2022/04/16 07:54:19;;;;;;;3.20;1.75;;;13.40;51.70;;;;;;5131521;27;20023;-64
2022/04/16 07:56:45;;;;;;;3.47;1.50;;;13.50;51.80;;;;;;5132306;27;20046;-64
2022/04/16 07:59:11;;;;;;;2.45;1.58;;;13.60;51.70;;;;;;5113422;27;20019;-65
2022/04/16 08:01:38;;;;;;;4.15;2.22;;;13.70;51.60;;;;;;5132408;27;20059;-64
2022/04/16 08:06:48;;;;;;;1.95;1.45;;;13.70;51.10;;;;;;5132132;27;20046;-62
2022/04/16 08:09:14;;;;;;;2.53;1.55;;;13.70;51.50;;;;;;5131763;27;20475;-63
2022/04/16 08:11:40;;;;;;;3.15;1.77;;;13.70;51.30;;;;;;5114066;27;20372;-68
2022/04/16 08:14:06;;;;;;;2.60;1.80;;;13.80;51.30;;;;;;5132256;27;20027;-64
2022/04/16 08:16:32;;;;;;;3.05;2.22;;;13.90;51.10;;;;;;5132265;27;20035;-66
2022/04/16 08:18:58;;;;;;;2.67;1.70;;;13.90;51.00;;;;;;5132647;27;20031;-67
2022/04/16 08:21:26;;;;;;;2.17;1.60;;;13.80;51.10;;;;;;5131796;27;20022;-67
2022/04/16 08:23:56;;;;;;;2.17;1.73;;;13.80;51.10;;;;;;5132319;27;20027;-66
2022/04/16 08:26:23;;;;;;;3.00;1.90;;;13.80;52.00;;;;;;5132102;27;20035;-66
2022/04/16 08:28:48;;;;;;;1.58;1.40;;;13.60;51.50;;;;;;5132339;27;20040;-67
2022/04/16 08:31:14;;;;;;;2.28;2.05;;;13.60;51.80;;;;;;5113446;27;20391;-67
2022/04/16 08:33:40;;;;;;;3.15;2.20;;;13.50;51.80;;;;;;5131920;27;20034;-70
2022/04/16 08:36:06;;;;;;;2.17;1.73;;;13.40;51.90;;;;;;5131573;27;20106;-73
2022/04/16 08:38:31;;;;;;;2.50;1.60;;;13.40;52.10;;;;;;5131979;28;20027;-66
2022/04/16 08:41:00;;;;;;;5.78;1.70;;;13.40;52.20;;;;;;5104892;28;20048;-66
2022/04/16 08:43:26;;;;;;;2.10;1.65;;;13.40;52.00;;;;;;5090222;28;20059;-66
2022/04/16 08:45:55;;;;;;;2.78;1.70;;;13.40;51.90;;;;;;5091213;28;20043;-66
2022/04/16 08:48:21;;;;;;;2.15;1.60;;;13.50;51.50;;;;;;5089916;28;20590;-65
2022/04/16 08:50:48;;;;;;;2.20;1.60;;;13.40;51.60;;;;;;5089545;28;20039;-69
2022/04/16 08:53:15;;;;;;;3.60;2.13;;;13.40;51.40;;;;;;5090376;28;20426;-67
2022/04/16 08:55:40;;;;;;;4.22;1.63;;;13.40;51.70;;;;;;5090853;28;20032;-69
2022/04/16 08:58:06;;;;;;;2.90;1.80;;;13.40;51.60;;;;;;5089962;28;20463;-67
2022/04/16 09:00:32;;;;;;;4.18;3.47;;;13.40;51.70;;;;;;5090503;28;20025;-67
2022/04/16 09:03:03;;;;;;;4.00;1.85;;;13.30;51.80;;;;;;5090945;28;20483;-68
2022/04/16 09:05:29;;;;;;;2.78;1.77;;;13.40;51.80;;;;;;5090240;28;20035;-67
2022/04/16 09:07:58;;;;;;;3.75;1.70;;;13.30;51.80;;;;;;5089766;28;20024;-68
2022/04/16 09:10:34;;;;;;;3.58;2.03;;;13.30;52.00;;;;;;5090538;28;20260;-66
2022/04/16 09:13:03;;;;;;;4.35;2.00;;;13.40;52.20;;;;;;5090299;28;20035;-68
2022/04/16 09:15:30;;;;;;;3.08;2.13;;;13.50;52.20;;;;;;5088749;28;20032;-65
2022/04/16 09:18:03;;;;;;;3.50;1.90;;;13.60;51.90;;;;;;5089707;28;20107;-65
2022/04/16 09:20:38;;;;;;;2.42;1.88;;;13.70;51.60;;;;;;5094813;28;20085;-65
2022/04/16 09:23:25;;;;;;;3.45;1.80;;;13.80;51.40;;;;;;5094560;28;20028;-74
2022/04/16 09:25:51;;;;;;;2.42;1.90;;;13.80;51.30;;;;;;5093566;28;20413;-67
2022/04/16 09:28:18;;;;;;;3.03;1.98;;;13.80;51.20;;;;;;5092543;28;20111;-69
2022/04/16 09:30:50;;;;;;;3.65;2.20;;;13.90;51.20;;;;;;5094416;28;20036;-68
2022/04/16 09:33:16;;;;;;;2.45;2.00;;;14.00;51.00;;;;;;5093573;28;20026;-67
2022/04/16 09:35:42;;;;;;;3.92;2.30;;;14.30;50.40;;;;;;5093816;28;20384;-68
2022/04/16 09:38:12;;;;;;;4.45;2.70;;;14.50;49.80;;;;;;5093469;28;20038;-64
2022/04/16 09:40:38;;;;;;;3.00;2.33;;;14.70;49.20;;;;;;5098834;27;20400;-63
2022/04/16 09:43:05;;;;;;;2.80;2.15;;;14.90;47.90;;;;;;5134093;27;20027;-74
2022/04/16 09:45:32;;;;;;;5.43;2.40;;;14.90;47.60;;;;;;5116395;27;20391;-67
2022/04/16 09:48:00;;;;;;;4.15;3.10;;;15.10;47.70;;;;;;5134370;27;20108;-63
2022/04/16 09:50:30;;;;;;;4.07;3.03;;;15.20;46.90;;;;;;5116332;27;20094;-66
2022/04/16 09:53:02;;;;;;;3.28;2.40;;;15.40;46.50;;;;;;5134434;27;20106;-68
2022/04/16 09:55:29;;;;;;;3.38;2.67;;;15.40;46.20;;;;;;5115535;27;20466;-66
2022/04/16 09:58:06;;;;;;;4.53;2.53;;;15.50;45.80;;;;;;5134872;27;20039;-67
2022/04/16 10:00:34;;;;;;;3.72;2.60;;;15.70;45.30;;;;;;5134718;27;20180;-65
2022/04/16 10:03:00;;;;;;;3.53;2.60;;;15.80;45.20;;;;;;5134574;27;20019;-60
2022/04/16 10:05:26;;;;;;;4.60;2.58;;;16.00;44.80;;;;;;5116305;27;20103;-67
2022/04/16 10:07:53;;;;;;;5.53;2.90;;;15.90;44.30;;;;;;5116184;27;20028;-65
2022/04/16 10:11:03;;;;;;;4.20;3.20;;;16.10;44.10;;;;;;5133683;27;20047;-68
2022/04/16 10:13:12;;;;;;;4.68;3.10;;;16.50;43.40;;;;;;5121747;27;20027;-67
2022/04/16 10:16:05;;;;;;;4.70;2.95;;;16.60;43.20;;;;;;5134560;27;20062;-68
2022/04/16 10:18:33;;;;;;;3.78;2.88;;;16.80;42.50;;;;;;5134362;27;20385;-60
2022/04/16 10:21:01;;;;;;;5.03;3.38;;;17.20;42.10;;;;;;5115467;27;20079;-68
2022/04/16 10:23:27;;;;;;;4.95;3.75;;;17.50;41.20;;;;;;5115893;27;20027;-66
2022/04/16 10:28:55;;;;;;;6.00;3.00;;;17.60;39.80;;;;;;5134009;27;20049;-65
2022/04/16 10:31:24;;;;;;;3.97;3.15;;;17.50;40.50;;;;;;5114904;27;20194;-64
2022/04/16 10:34:05;;;;;;;3.53;2.70;;;17.40;40.70;;;;;;5133824;27;20102;-66
2022/04/16 10:36:32;;;;;;;5.40;3.13;;;17.60;39.80;;;;;;5115653;27;20042;-65
2022/04/16 10:39:00;;;;;;;5.03;3.58;;;17.50;40.00;;;;;;5115314;27;20038;-63
2022/04/16 10:41:27;;;;;;;5.30;3.10;;;17.40;39.50;;;;;;5132938;27;20054;-67
2022/04/16 10:44:01;;;;;;;9.68;3.08;;;17.10;39.90;;;;;;5133302;27;20023;-63
2022/04/16 10:46:47;;;;;;;4.82;2.90;;;17.00;39.60;;;;;;5114771;27;20091;-64
2022/04/16 10:49:14;;;;;;;7.30;4.72;;;16.80;39.10;;;;;;5114337;27;20117;-65
2022/04/16 10:51:47;;;;;;;7.82;5.57;;;16.50;39.60;;;;;;5133321;27;20031;-65
2022/04/16 10:54:15;;;;;;;3.58;2.80;;;16.20;39.60;;;;;;5113928;27;20027;-65
2022/04/16 10:56:53;;;;;;;3.90;3.00;;;15.90;40.10;;;;;;5114362;27;20058;-65
2022/04/16 10:59:34;;;;;;;11.05;5.68;;;15.80;40.70;;;;;;5132658;27;20114;-68
2022/04/16 11:02:01;;;;;;;5.22;3.00;;;15.70;40.90;;;;;;5114166;27;20114;-68
2022/04/16 11:04:27;;;;;;;6.57;4.57;;;15.30;41.70;;;;;;5114593;27;20034;-65
2022/04/16 11:06:57;;;;;;;7.10;4.07;;;15.20;42.50;;;;;;5132852;27;20332;-65
2022/04/16 11:09:23;;;;;;;6.03;3.70;;;15.10;42.90;;;;;;5114305;27;20074;-60
2022/04/16 11:11:52;;;;;;;6.30;3.45;;;15.00;43.20;;;;;;5132919;27;20023;-65
2022/04/16 11:14:18;;;;;;;6.20;4.40;;;14.80;43.70;;;;;;5132332;27;20520;-66
2022/04/16 11:16:45;;;;;;;8.75;4.20;;;14.80;43.90;;;;;;5133321;27;20042;-66
2022/04/16 11:19:16;;;;;;;8.38;4.45;;;14.60;43.90;;;;;;5132097;27;20095;-69
2022/04/16 11:21:45;;;;;;;8.38;4.35;;;14.50;44.10;;;;;;5133009;27;20030;-63
2022/04/16 11:24:12;;;;;;;9.23;3.90;;;14.50;44.10;;;;;;5132868;27;20416;-63
2022/04/16 11:34:57;;;;;;;6.15;4.22;;;14.50;44.20;;;;;;5132804;27;20496;-64
2022/04/16 11:37:23;;;;;;;6.40;3.70;;;14.50;43.90;;;;;;5131707;27;20222;-65
2022/04/16 11:40:03;;;;;;;11.57;4.03;;;14.50;43.70;;;;;;5132009;27;20023;-64
2022/04/16 11:42:30;;;;;;;8.02;4.10;;;14.40;44.00;;;;;;5112792;27;20039;-67
2022/04/16 11:44:56;;;;;;;10.60;7.13;;;14.50;44.10;;;;;;5112508;27;20023;-75
2022/04/16 11:47:24;;;;;;;12.07;7.82;;;14.50;43.50;;;;;;5111743;27;20031;-70
2022/04/16 11:50:01;;;;;;;6.15;4.10;;;14.30;43.40;;;;;;5131252;27;20064;-66
2022/04/16 11:52:31;;;;;;;5.15;3.80;;;14.30;43.50;;;;;;5130503;27;20045;-68
2022/04/16 11:55:21;;;;;;;13.88;4.35;;;14.50;43.60;;;;;;5111699;27;20027;-66
2022/04/16 11:57:52;;;;;;;5.38;4.15;;;14.60;43.20;;;;;;5113565;27;20023;-66
2022/04/16 12:00:20;;;;;;;5.40;3.40;;;14.80;42.90;;;;;;5111733;27;20046;-67
2022/04/16 12:02:48;;;;;;;7.00;3.53;;;14.90;42.60;;;;;;5129947;27;20102;-68
2022/04/16 12:05:23;;;;;;;9.48;4.35;;;14.90;42.10;;;;;;5131077;27;20030;-68
2022/04/16 12:07:49;;;;;;;7.93;3.80;;;14.90;41.60;;;;;;5113421;27;20023;-68
2022/04/16 12:10:17;;;;;;;6.85;5.00;;;14.80;41.70;;;;;;5129556;27;20502;-69
2022/04/16 12:12:48;;;;;;;8.05;4.82;;;14.70;41.90;;;;;;5111768;27;20027;-70
2022/04/16 12:15:25;;;;;;;9.18;4.18;;;14.70;42.00;;;;;;5111364;27;20456;-70
2022/04/16 12:17:53;;;;;;;4.82;3.40;;;14.80;42.00;;;;;;5130850;27;20114;-70
2022/04/16 12:20:20;;;;;;;4.80;4.07;;;14.80;41.70;;;;;;5111182;27;20448;-70
2022/04/16 12:22:50;;;;;;;8.52;3.58;;;15.00;41.50;;;;;;5130161;27;20064;-68
2022/04/16 12:25:18;;;;;;;4.03;3.45;;;15.10;41.00;;;;;;5111861;27;20026;-69
2022/04/16 12:27:52;;;;;;;5.82;3.97;;;15.20;40.80;;;;;;5131531;27;20030;-69
2022/04/16 12:30:26;;;;;;;5.40;3.85;;;15.10;40.40;;;;;;5112106;27;20116;-69
2022/04/16 12:33:01;;;;;;;7.78;5.50;;;15.10;40.30;;;;;;5129580;27;20076;-69
2022/04/16 12:35:39;;;;;;;8.13;5.07;;;15.20;40.20;;;;;;5112479;27;20068;-70
2022/04/16 12:38:05;;;;;;;5.68;4.22;;;15.30;40.30;;;;;;5129364;27;20106;-69
2022/04/16 12:40:33;;;;;;;8.70;5.72;;;15.40;39.90;;;;;;5108522;28;20038;-68
2022/04/16 12:42:59;;;;;;;4.35;3.53;;;15.50;39.90;;;;;;5130708;28;20015;-69
2022/04/16 12:45:26;;;;;;;4.22;3.30;;;15.60;39.60;;;;;;5129874;28;20415;-66
2022/04/16 12:47:53;;;;;;;5.22;3.17;;;15.70;39.10;;;;;;5130888;28;20130;-68
2022/04/16 12:50:20;;;;;;;7.32;3.50;;;15.70;38.40;;;;;;5110603;28;20019;-67
2022/04/16 12:52:46;;;;;;;4.63;3.38;;;15.50;38.20;;;;;;5108087;27;20019;-67
2022/04/16 12:55:12;;;;;;;6.15;4.18;;;15.70;37.80;;;;;;5130465;27;20080;-67
2022/04/16 12:57:39;;;;;;;6.78;3.25;;;15.80;37.90;;;;;;5131684;27;20095;-64
2022/04/16 13:00:09;;;;;;;6.55;3.10;;;16.00;37.30;;;;;;5112806;27;20065;-71
2022/04/16 13:05:20;;;;;;;5.13;3.35;;;15.90;37.10;;;;;;5116206;27;20042;-67
2022/04/16 13:07:46;;;;;;;6.45;3.20;;;16.00;37.20;;;;;;5113532;27;20023;-67
2022/04/16 13:10:14;;;;;;;6.93;3.35;;;15.90;37.00;;;;;;5111228;27;20023;-68
2022/04/16 13:12:40;;;;;;;7.63;4.82;;;15.80;37.10;;;;;;5113150;27;20023;-67
2022/04/16 13:15:08;;;;;;;7.32;4.45;;;15.60;36.90;;;;;;5112809;27;20020;-65
2022/04/16 13:17:34;;;;;;;8.07;5.85;;;15.30;37.50;;;;;;5130276;27;20411;-67